M.y. Libra Star — 3ALV — position and weather

sailwx.info

Track history (hours):
 
Tides and Currents Weather Stations Pressure Air Temp Water Temp Dewpoint Dewpoint Depression Visibility Wind Speed Wind Dir Waves Ship Positions

M.y. Libra Star

Last reported at 2014-Sep-20 22:19 UTC. Time now 2014-Sep-21 08:03 UTC.
Position N 43°44' E 007°26'.

Length 40 m; draft 3 m.

Type: Pleasure craft. MMSI: 254450000.

Date/timePositionNaut miles runAvg speedWind from/ knotsBaromVisibWave heightAir tempDewpointWater temp
2014-Sep-20 22:19N 43°44' E 007°26'4 5.4
2014-Sep-20 21:29N 43°41' E 007°21'0 0.0
2014-Sep-20 20:23N 43°41' E 007°21'0 0.0
2014-Sep-20 19:23N 43°41' E 007°21'0 0.0
2014-Sep-20 18:29N 43°41' E 007°21'0 0.0
2014-Sep-20 17:29N 43°41' E 007°21'0 0.0
2014-Sep-20 16:17N 43°41' E 007°21'0 0.0
2014-Sep-20 15:23N 43°41' E 007°21'0 0.0
2014-Sep-20 14:23N 43°41' E 007°21'0 0.0
2014-Sep-20 13:29N 43°41' E 007°21'0 0.0
2014-Sep-20 12:29N 43°41' E 007°21'0 0.0
2014-Sep-20 11:17N 43°41' E 007°21'0 0.0
2014-Sep-20 10:29N 43°41' E 007°21'  
2014-Sep-14 19:27N 43°43' E 007°24'1213.8
2014-Sep-14 18:33N 43°34' E 007°12'1413.6
2014-Sep-14 17:33N 43°24' E 006°59'1413.6
2014-Sep-14 16:33N 43°15' E 006°46'1513.8
2014-Sep-14 15:28N 43°07' E 006°29'1314.3
2014-Sep-14 14:33N 43°03' E 006°11'1 1.0
2014-Sep-14 13:22N 43°02' E 006°10'0 0.0
2014-Sep-14 12:28N 43°02' E 006°10'0 0.0
2014-Sep-14 11:31N 43°02' E 006°10'0 0.0
2014-Sep-14 10:28N 43°02' E 006°10'0 0.0
2014-Sep-14 09:31N 43°02' E 006°10'0 0.0
2014-Sep-14 08:31N 43°02' E 006°10'3 2.7
2014-Sep-14 07:33N 43°00' E 006°12'0 0.0
2014-Sep-14 06:33N 43°00' E 006°12'0 0.0
2014-Sep-14 05:33N 43°00' E 006°12'0 0.0
2014-Sep-14 04:33N 43°00' E 006°12'0 0.0
2014-Sep-14 03:33N 43°00' E 006°12'0 0.0
2014-Sep-14 02:33N 43°00' E 006°12'0 0.0
2014-Sep-14 01:33N 43°00' E 006°12'0 0.0
2014-Sep-13 21:33N 43°00' E 006°12'0 0.0
2014-Sep-13 20:33N 43°00' E 006°12'0 0.0
2014-Sep-13 19:33N 43°00' E 006°12'0 0.0
2014-Sep-13 18:33N 43°00' E 006°12'0 0.0
2014-Sep-13 17:33N 43°00' E 006°12'7 7.2
2014-Sep-13 16:33N 43°04' E 006°20'18 2.7
2014-Sep-13 10:08N 43°12' E 006°42'5 8.9
2014-Sep-13 09:33N 43°17' E 006°39'1 0.1
2014-Sep-12 16:33N 43°16' E 006°38'2 1.6
2014-Sep-12 15:31N 43°16' E 006°40'0 0.0
2014-Sep-12 14:10N 43°16' E 006°40'0 0.0
2014-Sep-12 12:31N 43°16' E 006°40'0 0.4
2014-Sep-12 11:33N 43°17' E 006°40'1414.2
2014-Sep-12 10:33N 43°25' E 006°55'1514.7
2014-Sep-12 09:33N 43°34' E 007°11'9 8.8
2014-Sep-12 08:30N 43°42' E 007°19'0 0.0
2014-Sep-12 07:24N 43°42' E 007°19'0 0.0
2014-Sep-12 06:30N 43°42' E 007°19'0 0.0
2014-Sep-12 05:18N 43°42' E 007°19'0 0.0
2014-Sep-12 04:24N 43°42' E 007°19'0 0.0
2014-Sep-12 03:30N 43°42' E 007°19'0 0.0
2014-Sep-12 02:12N 43°42' E 007°19'0 0.0
2014-Sep-12 01:30N 43°42' E 007°19'0 0.0
2014-Sep-12 00:30N 43°42' E 007°19'0 0.0
2014-Sep-11 23:30N 43°42' E 007°19'0 0.0
2014-Sep-11 22:30N 43°42' E 007°19'0 0.0
2014-Sep-11 21:24N 43°42' E 007°19'0 0.0
2014-Sep-11 20:30N 43°42' E 007°19'0 0.0
2014-Sep-11 19:30N 43°42' E 007°19'0 0.0
2014-Sep-11 18:30N 43°42' E 007°19'0 0.0
2014-Sep-11 17:24N 43°42' E 007°19'0 0.0
2014-Sep-11 16:24N 43°42' E 007°19'0 0.0
2014-Sep-11 15:30N 43°42' E 007°19'0 0.0
2014-Sep-11 14:30N 43°42' E 007°19'0 0.0
2014-Sep-11 13:24N 43°42' E 007°19'0 0.0
2014-Sep-11 12:30N 43°42' E 007°19'0 0.0
2014-Sep-11 11:30N 43°42' E 007°19'0 0.0
2014-Sep-11 10:30N 43°42' E 007°19'0 0.0
2014-Sep-11 09:30N 43°42' E 007°19'  
Track history (hours):
 
Tides and Currents Weather Stations Pressure Air Temp Water Temp Dewpoint Dewpoint Depression Visibility Wind Speed Wind Dir Waves Ship Positions

M.y. Libra Star

Last reported at 2014-Sep-20 22:19 UTC. Time now 2014-Sep-21 08:03 UTC.
Position N 43°44' E 007°26'.

Length 40 m; draft 3 m.

Type: Pleasure craft. MMSI: 254450000.

Date/timePositionNaut miles runAvg speedWind from/ knotsBaromVisibWave heightAir tempDewpointWater temp
2014-Sep-20 22:19N 43°44' E 007°26'4 5.4
2014-Sep-20 21:29N 43°41' E 007°21'0 0.0
2014-Sep-20 20:23N 43°41' E 007°21'0 0.0
2014-Sep-20 19:23N 43°41' E 007°21'0 0.0
2014-Sep-20 18:29N 43°41' E 007°21'0 0.0
2014-Sep-20 17:29N 43°41' E 007°21'0 0.0
2014-Sep-20 16:17N 43°41' E 007°21'0 0.0
2014-Sep-20 15:23N 43°41' E 007°21'0 0.0
2014-Sep-20 14:23N 43°41' E 007°21'0 0.0
2014-Sep-20 13:29N 43°41' E 007°21'0 0.0
2014-Sep-20 12:29N 43°41' E 007°21'0 0.0
2014-Sep-20 11:17N 43°41' E 007°21'0 0.0
2014-Sep-20 10:29N 43°41' E 007°21'  
2014-Sep-14 19:27N 43°43' E 007°24'1213.8
2014-Sep-14 18:33N 43°34' E 007°12'1413.6
2014-Sep-14 17:33N 43°24' E 006°59'1413.6
2014-Sep-14 16:33N 43°15' E 006°46'1513.8
2014-Sep-14 15:28N 43°07' E 006°29'1314.3
2014-Sep-14 14:33N 43°03' E 006°11'1 1.0
2014-Sep-14 13:22N 43°02' E 006°10'0 0.0
2014-Sep-14 12:28N 43°02' E 006°10'0 0.0
2014-Sep-14 11:31N 43°02' E 006°10'0 0.0
2014-Sep-14 10:28N 43°02' E 006°10'0 0.0
2014-Sep-14 09:31N 43°02' E 006°10'0 0.0
2014-Sep-14 08:31N 43°02' E 006°10'3 2.7
2014-Sep-14 07:33N 43°00' E 006°12'0 0.0
2014-Sep-14 06:33N 43°00' E 006°12'0 0.0
2014-Sep-14 05:33N 43°00' E 006°12'0 0.0
2014-Sep-14 04:33N 43°00' E 006°12'0 0.0
2014-Sep-14 03:33N 43°00' E 006°12'0 0.0
2014-Sep-14 02:33N 43°00' E 006°12'0 0.0
2014-Sep-14 01:33N 43°00' E 006°12'0 0.0
2014-Sep-13 21:33N 43°00' E 006°12'0 0.0
2014-Sep-13 20:33N 43°00' E 006°12'0 0.0
2014-Sep-13 19:33N 43°00' E 006°12'0 0.0
2014-Sep-13 18:33N 43°00' E 006°12'0 0.0
2014-Sep-13 17:33N 43°00' E 006°12'7 7.2
2014-Sep-13 16:33N 43°04' E 006°20'18 2.7
2014-Sep-13 10:08N 43°12' E 006°42'5 8.9
2014-Sep-13 09:33N 43°17' E 006°39'1 0.1
2014-Sep-12 16:33N 43°16' E 006°38'2 1.6
2014-Sep-12 15:31N 43°16' E 006°40'0 0.0
2014-Sep-12 14:10N 43°16' E 006°40'0 0.0
2014-Sep-12 12:31N 43°16' E 006°40'0 0.4
2014-Sep-12 11:33N 43°17' E 006°40'1414.2
2014-Sep-12 10:33N 43°25' E 006°55'1514.7
2014-Sep-12 09:33N 43°34' E 007°11'9 8.8
2014-Sep-12 08:30N 43°42' E 007°19'0 0.0
2014-Sep-12 07:24N 43°42' E 007°19'0 0.0
2014-Sep-12 06:30N 43°42' E 007°19'0 0.0
2014-Sep-12 05:18N 43°42' E 007°19'0 0.0
2014-Sep-12 04:24N 43°42' E 007°19'0 0.0
2014-Sep-12 03:30N 43°42' E 007°19'0 0.0
2014-Sep-12 02:12N 43°42' E 007°19'0 0.0
2014-Sep-12 01:30N 43°42' E 007°19'0 0.0
2014-Sep-12 00:30N 43°42' E 007°19'0 0.0
2014-Sep-11 23:30N 43°42' E 007°19'0 0.0
2014-Sep-11 22:30N 43°42' E 007°19'0 0.0
2014-Sep-11 21:24N 43°42' E 007°19'0 0.0
2014-Sep-11 20:30N 43°42' E 007°19'0 0.0
2014-Sep-11 19:30N 43°42' E 007°19'0 0.0
2014-Sep-11 18:30N 43°42' E 007°19'0 0.0
2014-Sep-11 17:24N 43°42' E 007°19'0 0.0
2014-Sep-11 16:24N 43°42' E 007°19'0 0.0
2014-Sep-11 15:30N 43°42' E 007°19'0 0.0
2014-Sep-11 14:30N 43°42' E 007°19'0 0.0
2014-Sep-11 13:24N 43°42' E 007°19'0 0.0
2014-Sep-11 12:30N 43°42' E 007°19'0 0.0
2014-Sep-11 11:30N 43°42' E 007°19'0 0.0
2014-Sep-11 10:30N 43°42' E 007°19'0 0.0
2014-Sep-11 09:30N 43°42' E 007°19'  

Dump ship's entire track history